sensor_id;sensor_type;location;lat;lon;timestamp;pressure;altitude;pressure_sealevel;temperature;humidity
50710;BME280;37033;49.994;21.992;2022-08-01T00:01:45;98862.37;;;15.50;87.64
50710;BME280;37033;49.994;21.992;2022-08-01T00:04:35;98862.15;;;15.49;87.66
50710;BME280;37033;49.994;21.992;2022-08-01T00:07:25;98868.09;;;15.48;87.71
50710;BME280;37033;49.994;21.992;2022-08-01T00:10:18;98869.23;;;15.48;87.87
50710;BME280;37033;49.994;21.992;2022-08-01T00:13:08;98866.77;;;15.47;88.12
50710;BME280;37033;49.994;21.992;2022-08-01T00:15:59;98866.67;;;15.45;88.29
50710;BME280;37033;49.994;21.992;2022-08-01T00:18:49;98870.86;;;15.42;88.31
50710;BME280;37033;49.994;21.992;2022-08-01T00:21:40;98866.44;;;15.40;88.41
50710;BME280;37033;49.994;21.992;2022-08-01T00:24:30;98872.26;;;15.39;88.52
50710;BME280;37033;49.994;21.992;2022-08-01T00:27:21;98873.48;;;15.38;88.51
50710;BME280;37033;49.994;21.992;2022-08-01T00:30:11;98872.83;;;15.37;88.48
50710;BME280;37033;49.994;21.992;2022-08-01T00:33:02;98875.18;;;15.37;88.36
50710;BME280;37033;49.994;21.992;2022-08-01T00:35:52;98871.38;;;15.39;88.74
50710;BME280;37033;49.994;21.992;2022-08-01T00:38:42;98871.03;;;15.37;88.87
50710;BME280;37033;49.994;21.992;2022-08-01T00:41:33;98870.15;;;15.36;88.70
50710;BME280;37033;49.994;21.992;2022-08-01T00:44:23;98868.56;;;15.36;88.82
50710;BME280;37033;49.994;21.992;2022-08-01T00:47:13;98869.77;;;15.35;88.76
50710;BME280;37033;49.994;21.992;2022-08-01T00:50:05;98872.12;;;15.35;88.89
50710;BME280;37033;49.994;21.992;2022-08-01T00:52:56;98870.15;;;15.35;88.77
50710;BME280;37033;49.994;21.992;2022-08-01T00:55:48;98871.09;;;15.35;88.79
50710;BME280;37033;49.994;21.992;2022-08-01T00:58:38;98870.31;;;15.35;88.82
50710;BME280;37033;49.994;21.992;2022-08-01T01:01:29;98869.34;;;15.35;89.07
50710;BME280;37033;49.994;21.992;2022-08-01T01:04:19;98866.17;;;15.34;88.99
50710;BME280;37033;49.994;21.992;2022-08-01T01:07:13;98860.75;;;15.32;89.01
50710;BME280;37033;49.994;21.992;2022-08-01T01:10:11;98860.82;;;15.31;89.08
50710;BME280;37033;49.994;21.992;2022-08-01T01:13:07;98858.84;;;15.31;89.11
50710;BME280;37033;49.994;21.992;2022-08-01T01:15:59;98856.83;;;15.30;89.18
50710;BME280;37033;49.994;21.992;2022-08-01T01:18:53;98856.73;;;15.29;88.91
50710;BME280;37033;49.994;21.992;2022-08-01T01:21:58;98855.34;;;15.30;88.99
50710;BME280;37033;49.994;21.992;2022-08-01T01:25:07;98859.50;;;15.30;88.90
50710;BME280;37033;49.994;21.992;2022-08-01T01:28:08;98860.48;;;15.30;88.96
50710;BME280;37033;49.994;21.992;2022-08-01T01:31:01;98861.75;;;15.30;88.80
50710;BME280;37033;49.994;21.992;2022-08-01T01:33:53;98857.26;;;15.30;88.82
50710;BME280;37033;49.994;21.992;2022-08-01T01:36:45;98860.39;;;15.31;88.94
50710;BME280;37033;49.994;21.992;2022-08-01T01:39:38;98860.54;;;15.31;88.91
50710;BME280;37033;49.994;21.992;2022-08-01T01:42:29;98863.39;;;15.32;89.03
50710;BME280;37033;49.994;21.992;2022-08-01T01:45:23;98860.54;;;15.32;89.02
50710;BME280;37033;49.994;21.992;2022-08-01T01:48:15;98864.87;;;15.32;89.02
50710;BME280;37033;49.994;21.992;2022-08-01T01:51:07;98870.39;;;15.32;89.10
50710;BME280;37033;49.994;21.992;2022-08-01T01:53:58;98867.59;;;15.33;89.04
50710;BME280;37033;49.994;21.992;2022-08-01T01:56:52;98868.52;;;15.34;89.01
50710;BME280;37033;49.994;21.992;2022-08-01T01:59:43;98868.36;;;15.33;89.11
50710;BME280;37033;49.994;21.992;2022-08-01T02:02:34;98870.77;;;15.32;89.02
50710;BME280;37033;49.994;21.992;2022-08-01T02:05:27;98870.08;;;15.32;89.07
50710;BME280;37033;49.994;21.992;2022-08-01T02:08:19;98874.19;;;15.32;89.08
50710;BME280;37033;49.994;21.992;2022-08-01T02:11:10;98875.34;;;15.32;89.14
50710;BME280;37033;49.994;21.992;2022-08-01T02:14:11;98879.16;;;15.32;89.11
50710;BME280;37033;49.994;21.992;2022-08-01T02:17:02;98875.71;;;15.32;89.20
50710;BME280;37033;49.994;21.992;2022-08-01T02:19:54;98873.90;;;15.33;89.27
50710;BME280;37033;49.994;21.992;2022-08-01T02:22:48;98875.73;;;15.31;89.30
50710;BME280;37033;49.994;21.992;2022-08-01T02:25:42;98874.61;;;15.32;89.31
50710;BME280;37033;49.994;21.992;2022-08-01T02:28:38;98873.09;;;15.30;89.27
50710;BME280;37033;49.994;21.992;2022-08-01T02:31:35;98870.58;;;15.30;89.47
50710;BME280;37033;49.994;21.992;2022-08-01T02:34:29;98870.36;;;15.29;89.41
50710;BME280;37033;49.994;21.992;2022-08-01T02:37:21;98873.11;;;15.28;89.45
50710;BME280;37033;49.994;21.992;2022-08-01T02:40:13;98875.29;;;15.29;89.36
50710;BME280;37033;49.994;21.992;2022-08-01T02:43:06;98879.02;;;15.29;89.35
50710;BME280;37033;49.994;21.992;2022-08-01T02:46:01;98879.30;;;15.29;89.66
50710;BME280;37033;49.994;21.992;2022-08-01T02:48:53;98877.88;;;15.27;89.70
50710;BME280;37033;49.994;21.992;2022-08-01T02:51:47;98884.95;;;15.26;89.63
50710;BME280;37033;49.994;21.992;2022-08-01T02:54:39;98889.55;;;15.26;89.67
50710;BME280;37033;49.994;21.992;2022-08-01T02:57:31;98896.39;;;15.26;89.62
50710;BME280;37033;49.994;21.992;2022-08-01T03:00:23;98896.23;;;15.26;89.55
50710;BME280;37033;49.994;21.992;2022-08-01T03:03:15;98897.34;;;15.25;89.58
50710;BME280;37033;49.994;21.992;2022-08-01T03:06:06;98898.93;;;15.25;89.59
50710;BME280;37033;49.994;21.992;2022-08-01T03:09:02;98900.74;;;15.25;89.54
50710;BME280;37033;49.994;21.992;2022-08-01T03:11:53;98900.84;;;15.26;89.57
50710;BME280;37033;49.994;21.992;2022-08-01T03:14:48;98903.63;;;15.28;89.50
50710;BME280;37033;49.994;21.992;2022-08-01T03:17:43;98900.00;;;15.30;89.55
50710;BME280;37033;49.994;21.992;2022-08-01T03:20:34;98900.46;;;15.32;89.56
50710;BME280;37033;49.994;21.992;2022-08-01T03:23:26;98898.44;;;15.32;89.56
50710;BME280;37033;49.994;21.992;2022-08-01T03:26:19;98897.41;;;15.31;89.55
50710;BME280;37033;49.994;21.992;2022-08-01T03:29:12;98904.20;;;15.31;89.63
50710;BME280;37033;49.994;21.992;2022-08-01T03:32:05;98903.48;;;15.29;89.51
50710;BME280;37033;49.994;21.992;2022-08-01T03:34:56;98900.05;;;15.28;89.54
50710;BME280;37033;49.994;21.992;2022-08-01T03:37:48;98895.89;;;15.28;89.58
50710;BME280;37033;49.994;21.992;2022-08-01T03:40:43;98899.25;;;15.27;89.63
50710;BME280;37033;49.994;21.992;2022-08-01T03:43:36;98900.67;;;15.25;89.64
50710;BME280;37033;49.994;21.992;2022-08-01T03:46:32;98903.85;;;15.25;89.65
50710;BME280;37033;49.994;21.992;2022-08-01T03:49:31;98909.21;;;15.26;89.55
50710;BME280;37033;49.994;21.992;2022-08-01T03:52:22;98911.08;;;15.26;89.63
50710;BME280;37033;49.994;21.992;2022-08-01T03:55:14;98911.52;;;15.28;89.74
50710;BME280;37033;49.994;21.992;2022-08-01T03:58:06;98909.52;;;15.29;89.67
50710;BME280;37033;49.994;21.992;2022-08-01T04:00:58;98915.82;;;15.30;89.65
50710;BME280;37033;49.994;21.992;2022-08-01T04:03:49;98920.56;;;15.31;89.59
50710;BME280;37033;49.994;21.992;2022-08-01T04:06:42;98924.62;;;15.32;89.55
50710;BME280;37033;49.994;21.992;2022-08-01T04:09:34;98925.36;;;15.34;89.69
50710;BME280;37033;49.994;21.992;2022-08-01T04:12:24;98930.56;;;15.36;89.61
50710;BME280;37033;49.994;21.992;2022-08-01T04:15:14;98931.22;;;15.35;89.51
50710;BME280;37033;49.994;21.992;2022-08-01T04:18:05;98929.80;;;15.34;89.62
50710;BME280;37033;49.994;21.992;2022-08-01T04:20:57;98935.73;;;15.33;89.54
50710;BME280;37033;49.994;21.992;2022-08-01T04:23:48;98932.95;;;15.32;89.65
50710;BME280;37033;49.994;21.992;2022-08-01T04:26:40;98929.94;;;15.31;89.69
50710;BME280;37033;49.994;21.992;2022-08-01T04:29:33;98931.48;;;15.29;89.55
50710;BME280;37033;49.994;21.992;2022-08-01T04:32:24;98929.35;;;15.28;89.65
50710;BME280;37033;49.994;21.992;2022-08-01T04:35:17;98929.52;;;15.27;89.63
50710;BME280;37033;49.994;21.992;2022-08-01T04:38:10;98928.33;;;15.26;89.64
50710;BME280;37033;49.994;21.992;2022-08-01T04:41:03;98926.73;;;15.26;89.77
50710;BME280;37033;49.994;21.992;2022-08-01T04:43:55;98927.55;;;15.26;89.60
50710;BME280;37033;49.994;21.992;2022-08-01T04:46:47;98929.02;;;15.27;89.69
50710;BME280;37033;49.994;21.992;2022-08-01T04:49:38;98932.61;;;15.25;89.70
50710;BME280;37033;49.994;21.992;2022-08-01T04:52:35;98933.14;;;15.25;89.66
50710;BME280;37033;49.994;21.992;2022-08-01T04:55:26;98934.58;;;15.24;89.68
50710;BME280;37033;49.994;21.992;2022-08-01T04:58:16;98933.70;;;15.25;89.77
50710;BME280;37033;49.994;21.992;2022-08-01T05:01:07;98937.59;;;15.24;90.03
50710;BME280;37033;49.994;21.992;2022-08-01T05:03:57;98937.50;;;15.22;90.05
50710;BME280;37033;49.994;21.992;2022-08-01T05:06:48;98936.14;;;15.22;90.11
50710;BME280;37033;49.994;21.992;2022-08-01T05:09:38;98934.86;;;15.23;90.11
50710;BME280;37033;49.994;21.992;2022-08-01T05:12:29;98934.58;;;15.24;90.08
50710;BME280;37033;49.994;21.992;2022-08-01T05:15:21;98939.12;;;15.27;90.05
50710;BME280;37033;49.994;21.992;2022-08-01T05:18:11;98944.25;;;15.28;90.13
50710;BME280;37033;49.994;21.992;2022-08-01T05:21:02;98942.09;;;15.32;90.07
50710;BME280;37033;49.994;21.992;2022-08-01T05:23:52;98947.82;;;15.35;90.00
50710;BME280;37033;49.994;21.992;2022-08-01T05:26:43;98946.88;;;15.38;90.05
50710;BME280;37033;49.994;21.992;2022-08-01T05:29:33;98949.89;;;15.39;89.96
50710;BME280;37033;49.994;21.992;2022-08-01T05:32:24;98950.59;;;15.39;89.90
50710;BME280;37033;49.994;21.992;2022-08-01T05:35:15;98951.42;;;15.39;90.12
50710;BME280;37033;49.994;21.992;2022-08-01T05:38:05;98949.05;;;15.40;90.01
50710;BME280;37033;49.994;21.992;2022-08-01T05:40:56;98953.48;;;15.43;90.01
50710;BME280;37033;49.994;21.992;2022-08-01T05:43:46;98955.96;;;15.46;90.04
50710;BME280;37033;49.994;21.992;2022-08-01T05:46:36;98954.48;;;15.48;89.96
50710;BME280;37033;49.994;21.992;2022-08-01T05:49:27;98955.61;;;15.51;90.02
50710;BME280;37033;49.994;21.992;2022-08-01T05:52:17;98957.31;;;15.49;90.04
50710;BME280;37033;49.994;21.992;2022-08-01T05:55:09;98958.52;;;15.48;90.04
50710;BME280;37033;49.994;21.992;2022-08-01T05:57:59;98960.02;;;15.46;90.15
50710;BME280;37033;49.994;21.992;2022-08-01T06:00:50;98961.27;;;15.48;90.17
50710;BME280;37033;49.994;21.992;2022-08-01T06:03:40;98962.84;;;15.50;90.32
50710;BME280;37033;49.994;21.992;2022-08-01T06:06:30;98963.38;;;15.52;90.41
50710;BME280;37033;49.994;21.992;2022-08-01T06:09:20;98965.89;;;15.52;90.20
50710;BME280;37033;49.994;21.992;2022-08-01T06:12:11;98966.42;;;15.54;90.39
50710;BME280;37033;49.994;21.992;2022-08-01T06:15:01;98971.64;;;15.55;90.54
50710;BME280;37033;49.994;21.992;2022-08-01T06:17:52;98974.06;;;15.50;90.59
50710;BME280;37033;49.994;21.992;2022-08-01T06:20:42;98973.33;;;15.47;90.71
50710;BME280;37033;49.994;21.992;2022-08-01T06:23:33;98979.14;;;15.45;90.78
50710;BME280;37033;49.994;21.992;2022-08-01T06:26:23;98983.42;;;15.45;90.86
50710;BME280;37033;49.994;21.992;2022-08-01T06:29:13;98983.75;;;15.47;91.06
50710;BME280;37033;49.994;21.992;2022-08-01T06:32:04;98986.96;;;15.49;90.97
50710;BME280;37033;49.994;21.992;2022-08-01T06:34:55;98985.66;;;15.54;90.92
50710;BME280;37033;49.994;21.992;2022-08-01T06:37:46;98989.13;;;15.59;90.78
50710;BME280;37033;49.994;21.992;2022-08-01T06:40:37;98990.80;;;15.64;90.58
50710;BME280;37033;49.994;21.992;2022-08-01T06:43:27;98991.60;;;15.67;90.44
50710;BME280;37033;49.994;21.992;2022-08-01T06:46:18;98997.63;;;15.69;90.30
50710;BME280;37033;49.994;21.992;2022-08-01T06:49:08;98996.80;;;15.68;90.34
50710;BME280;37033;49.994;21.992;2022-08-01T06:51:59;98995.71;;;15.68;90.33
50710;BME280;37033;49.994;21.992;2022-08-01T06:54:49;98998.93;;;15.69;90.16
50710;BME280;37033;49.994;21.992;2022-08-01T06:57:46;99004.37;;;15.69;90.06
50710;BME280;37033;49.994;21.992;2022-08-01T07:00:37;99007.48;;;15.68;90.16
50710;BME280;37033;49.994;21.992;2022-08-01T07:03:27;99006.78;;;15.66;90.16
50710;BME280;37033;49.994;21.992;2022-08-01T07:06:17;99011.67;;;15.67;90.26
50710;BME280;37033;49.994;21.992;2022-08-01T07:09:08;99013.69;;;15.67;90.13
50710;BME280;37033;49.994;21.992;2022-08-01T07:11:58;99019.86;;;15.68;90.13
50710;BME280;37033;49.994;21.992;2022-08-01T07:14:48;99022.06;;;15.68;90.20
50710;BME280;37033;49.994;21.992;2022-08-01T07:17:40;99024.68;;;15.70;90.16
50710;BME280;37033;49.994;21.992;2022-08-01T07:20:31;99027.84;;;15.71;90.15
50710;BME280;37033;49.994;21.992;2022-08-01T07:23:22;99034.20;;;15.72;90.03
50710;BME280;37033;49.994;21.992;2022-08-01T07:26:12;99038.92;;;15.74;89.95
50710;BME280;37033;49.994;21.992;2022-08-01T07:29:03;99039.66;;;15.81;89.91
50710;BME280;37033;49.994;21.992;2022-08-01T07:31:54;99041.02;;;15.90;90.01
50710;BME280;37033;49.994;21.992;2022-08-01T07:34:45;99038.28;;;15.97;89.72
50710;BME280;37033;49.994;21.992;2022-08-01T07:37:35;99038.39;;;16.05;89.65
50710;BME280;37033;49.994;21.992;2022-08-01T07:40:25;99038.29;;;16.10;89.39
50710;BME280;37033;49.994;21.992;2022-08-01T07:43:15;99039.29;;;16.15;89.23
50710;BME280;37033;49.994;21.992;2022-08-01T07:46:06;99037.83;;;16.20;89.13
50710;BME280;37033;49.994;21.992;2022-08-01T07:48:57;99039.54;;;16.25;89.00
50710;BME280;37033;49.994;21.992;2022-08-01T07:51:47;99043.39;;;16.30;88.86
50710;BME280;37033;49.994;21.992;2022-08-01T07:54:37;99045.14;;;16.37;88.82
50710;BME280;37033;49.994;21.992;2022-08-01T07:57:28;99045.39;;;16.46;88.76
50710;BME280;37033;49.994;21.992;2022-08-01T08:00:19;99043.73;;;16.52;88.45
50710;BME280;37033;49.994;21.992;2022-08-01T08:03:10;99042.70;;;16.56;88.15
50710;BME280;37033;49.994;21.992;2022-08-01T08:06:00;99044.18;;;16.63;88.05
50710;BME280;37033;49.994;21.992;2022-08-01T08:08:50;99052.10;;;16.72;88.01
50710;BME280;37033;49.994;21.992;2022-08-01T08:11:43;99057.34;;;16.84;88.02
50710;BME280;37033;49.994;21.992;2022-08-01T08:14:33;99058.69;;;16.96;87.64
50710;BME280;37033;49.994;21.992;2022-08-01T08:17:23;99054.55;;;17.03;86.89
50710;BME280;37033;49.994;21.992;2022-08-01T08:20:14;99058.67;;;17.06;86.63
50710;BME280;37033;49.994;21.992;2022-08-01T08:23:04;99067.45;;;17.07;86.41
50710;BME280;37033;49.994;21.992;2022-08-01T08:26:15;99064.01;;;17.15;86.50
50710;BME280;37033;49.994;21.992;2022-08-01T08:29:05;99060.98;;;17.25;86.23
50710;BME280;37033;49.994;21.992;2022-08-01T08:31:56;99062.25;;;17.38;86.26
50710;BME280;37033;49.994;21.992;2022-08-01T08:34:46;99063.88;;;17.48;85.34
50710;BME280;37033;49.994;21.992;2022-08-01T08:37:37;99068.03;;;17.58;85.42
50710;BME280;37033;49.994;21.992;2022-08-01T08:40:31;99068.94;;;17.68;85.03
50710;BME280;37033;49.994;21.992;2022-08-01T08:43:22;99066.76;;;17.78;84.78
50710;BME280;37033;49.994;21.992;2022-08-01T08:46:13;99066.27;;;17.95;84.27
50710;BME280;37033;49.994;21.992;2022-08-01T08:49:04;99068.11;;;18.08;83.63
50710;BME280;37033;49.994;21.992;2022-08-01T08:51:59;99067.35;;;18.21;83.39
50710;BME280;37033;49.994;21.992;2022-08-01T08:54:51;99071.76;;;18.35;82.95
50710;BME280;37033;49.994;21.992;2022-08-01T08:57:44;99075.73;;;18.53;83.27
50710;BME280;37033;49.994;21.992;2022-08-01T09:00:35;99078.78;;;18.77;82.85
50710;BME280;37033;49.994;21.992;2022-08-01T09:03:25;99076.08;;;19.00;82.36
50710;BME280;37033;49.994;21.992;2022-08-01T09:06:18;99079.41;;;19.18;80.82
50710;BME280;37033;49.994;21.992;2022-08-01T09:09:09;99080.10;;;19.33;80.21
50710;BME280;37033;49.994;21.992;2022-08-01T09:12:00;99079.26;;;19.44;78.61
50710;BME280;37033;49.994;21.992;2022-08-01T09:14:50;99079.29;;;19.50;77.21
50710;BME280;37033;49.994;21.992;2022-08-01T09:17:42;99073.23;;;19.66;77.47
50710;BME280;37033;49.994;21.992;2022-08-01T09:20:33;99078.45;;;19.92;76.88
50710;BME280;37033;49.994;21.992;2022-08-01T09:23:34;99079.98;;;20.08;76.31
50710;BME280;37033;49.994;21.992;2022-08-01T09:26:33;99081.21;;;20.21;76.07
50710;BME280;37033;49.994;21.992;2022-08-01T09:29:25;99077.80;;;20.25;73.58
50710;BME280;37033;49.994;21.992;2022-08-01T09:32:16;99077.66;;;20.25;72.90
50710;BME280;37033;49.994;21.992;2022-08-01T09:35:27;99071.52;;;20.45;72.99
50710;BME280;37033;49.994;21.992;2022-08-01T09:38:19;99077.08;;;20.73;71.79
50710;BME280;37033;49.994;21.992;2022-08-01T09:41:09;99077.60;;;20.80;71.47
50710;BME280;37033;49.994;21.992;2022-08-01T09:43:59;99079.08;;;20.77;71.05
50710;BME280;37033;49.994;21.992;2022-08-01T09:46:54;99077.05;;;20.82;70.46
50710;BME280;37033;49.994;21.992;2022-08-01T09:49:45;99077.55;;;20.90;69.46
50710;BME280;37033;49.994;21.992;2022-08-01T09:52:36;99071.25;;;20.98;69.73
50710;BME280;37033;49.994;21.992;2022-08-01T09:55:27;99065.74;;;21.11;69.16
50710;BME280;37033;49.994;21.992;2022-08-01T09:58:18;99068.30;;;21.17;68.25
50710;BME280;37033;49.994;21.992;2022-08-01T10:01:09;99069.08;;;21.31;68.50
50710;BME280;37033;49.994;21.992;2022-08-01T10:04:11;99067.84;;;21.53;68.19
50710;BME280;37033;49.994;21.992;2022-08-01T10:07:07;99064.14;;;21.71;67.78
50710;BME280;37033;49.994;21.992;2022-08-01T10:10:10;99060.59;;;22.00;65.73
50710;BME280;37033;49.994;21.992;2022-08-01T10:13:01;99063.05;;;22.17;66.34
50710;BME280;37033;49.994;21.992;2022-08-01T10:15:52;99059.34;;;22.36;63.34
50710;BME280;37033;49.994;21.992;2022-08-01T10:18:43;99061.19;;;22.47;62.70
50710;BME280;37033;49.994;21.992;2022-08-01T10:21:35;99061.80;;;22.65;62.01
50710;BME280;37033;49.994;21.992;2022-08-01T10:24:28;99069.35;;;22.69;60.19
50710;BME280;37033;49.994;21.992;2022-08-01T10:27:20;99063.87;;;22.69;62.49
50710;BME280;37033;49.994;21.992;2022-08-01T10:30:12;99061.93;;;23.25;64.84
50710;BME280;37033;49.994;21.992;2022-08-01T10:33:03;99061.06;;;23.65;61.14
50710;BME280;37033;49.994;21.992;2022-08-01T10:35:54;99058.39;;;23.88;61.21
50710;BME280;37033;49.994;21.992;2022-08-01T10:38:44;99060.32;;;24.05;56.86
50710;BME280;37033;49.994;21.992;2022-08-01T10:41:36;99064.95;;;23.97;57.06
50710;BME280;37033;49.994;21.992;2022-08-01T10:44:28;99065.05;;;24.09;56.14
50710;BME280;37033;49.994;21.992;2022-08-01T10:47:21;99060.48;;;24.20;57.98
50710;BME280;37033;49.994;21.992;2022-08-01T10:50:19;99061.66;;;24.59;57.71
50710;BME280;37033;49.994;21.992;2022-08-01T10:53:16;99059.01;;;24.76;56.14
50710;BME280;37033;49.994;21.992;2022-08-01T10:56:08;99065.52;;;24.67;54.31
50710;BME280;37033;49.994;21.992;2022-08-01T10:59:04;99066.05;;;24.49;54.32
50710;BME280;37033;49.994;21.992;2022-08-01T11:02:02;99068.52;;;24.36;54.78
50710;BME280;37033;49.994;21.992;2022-08-01T11:04:56;99065.82;;;24.23;54.36
50710;BME280;37033;49.994;21.992;2022-08-01T11:07:46;99070.15;;;24.05;54.93
50710;BME280;37033;49.994;21.992;2022-08-01T11:10:40;99072.14;;;23.93;55.22
50710;BME280;37033;49.994;21.992;2022-08-01T11:14:04;99069.05;;;23.80;55.17
50710;BME280;37033;49.994;21.992;2022-08-01T11:20:18;99067.31;;;23.80;56.06
50710;BME280;37033;49.994;21.992;2022-08-01T11:23:25;99064.45;;;23.72;56.28
50710;BME280;37033;49.994;21.992;2022-08-01T11:26:17;99062.40;;;23.77;56.90
50710;BME280;37033;49.994;21.992;2022-08-01T11:29:18;99064.66;;;23.81;56.51
50710;BME280;37033;49.994;21.992;2022-08-01T11:32:25;99065.29;;;23.75;55.51
50710;BME280;37033;49.994;21.992;2022-08-01T11:35:16;99054.90;;;23.74;55.65
50710;BME280;37033;49.994;21.992;2022-08-01T11:38:24;99056.52;;;23.89;55.85
50710;BME280;37033;49.994;21.992;2022-08-01T11:41:24;99052.92;;;24.13;55.40
50710;BME280;37033;49.994;21.992;2022-08-01T11:44:17;99053.89;;;24.29;53.35
50710;BME280;37033;49.994;21.992;2022-08-01T11:47:08;99053.86;;;24.30;51.81
50710;BME280;37033;49.994;21.992;2022-08-01T11:50:00;99049.45;;;24.27;51.68
50710;BME280;37033;49.994;21.992;2022-08-01T11:52:59;99045.90;;;24.32;51.83
50710;BME280;37033;49.994;21.992;2022-08-01T11:55:51;99050.58;;;24.41;50.88
50710;BME280;37033;49.994;21.992;2022-08-01T11:58:41;99045.73;;;24.38;49.76
50710;BME280;37033;49.994;21.992;2022-08-01T12:01:31;99046.03;;;24.37;50.99
50710;BME280;37033;49.994;21.992;2022-08-01T12:04:21;99045.27;;;24.51;50.86
50710;BME280;37033;49.994;21.992;2022-08-01T12:07:15;99047.46;;;24.64;51.20
50710;BME280;37033;49.994;21.992;2022-08-01T12:10:07;99046.78;;;24.93;52.40
50710;BME280;37033;49.994;21.992;2022-08-01T12:13:01;99038.59;;;25.41;52.12
50710;BME280;37033;49.994;21.992;2022-08-01T12:15:52;99038.78;;;25.81;50.78
50710;BME280;37033;49.994;21.992;2022-08-01T12:18:45;99036.34;;;25.94;49.51
50710;BME280;37033;49.994;21.992;2022-08-01T12:21:36;99035.25;;;25.93;49.05
50710;BME280;37033;49.994;21.992;2022-08-01T12:24:26;99034.00;;;25.99;50.00
50710;BME280;37033;49.994;21.992;2022-08-01T12:27:26;99036.67;;;26.26;49.56
50710;BME280;37033;49.994;21.992;2022-08-01T12:30:18;99031.89;;;26.31;48.77
50710;BME280;37033;49.994;21.992;2022-08-01T12:33:16;99028.13;;;26.28;47.79
50710;BME280;37033;49.994;21.992;2022-08-01T12:36:08;99024.45;;;26.24;47.29
50710;BME280;37033;49.994;21.992;2022-08-01T12:38:58;99021.83;;;26.15;46.62
50710;BME280;37033;49.994;21.992;2022-08-01T12:41:51;99023.63;;;26.09;48.04
50710;BME280;37033;49.994;21.992;2022-08-01T12:44:44;99024.09;;;26.28;47.23
50710;BME280;37033;49.994;21.992;2022-08-01T12:47:36;99021.62;;;26.23;47.78
50710;BME280;37033;49.994;21.992;2022-08-01T12:50:27;99021.41;;;26.50;48.87
50710;BME280;37033;49.994;21.992;2022-08-01T12:53:19;99021.14;;;26.82;47.24
50710;BME280;37033;49.994;21.992;2022-08-01T12:56:10;99020.31;;;26.59;45.56
50710;BME280;37033;49.994;21.992;2022-08-01T12:59:01;99022.17;;;26.46;46.17
50710;BME280;37033;49.994;21.992;2022-08-01T13:01:52;99018.33;;;26.56;46.86
50710;BME280;37033;49.994;21.992;2022-08-01T13:04:52;99016.66;;;26.65;46.48
50710;BME280;37033;49.994;21.992;2022-08-01T13:07:48;99017.77;;;26.74;45.91
50710;BME280;37033;49.994;21.992;2022-08-01T13:10:38;99012.95;;;26.79;46.10
50710;BME280;37033;49.994;21.992;2022-08-01T13:13:39;99018.08;;;26.80;45.58
50710;BME280;37033;49.994;21.992;2022-08-01T13:16:30;99008.89;;;26.67;45.41
50710;BME280;37033;49.994;21.992;2022-08-01T13:19:20;99001.98;;;26.50;45.58
50710;BME280;37033;49.994;21.992;2022-08-01T13:22:10;98997.84;;;26.50;46.04
50710;BME280;37033;49.994;21.992;2022-08-01T13:25:12;99005.17;;;26.64;45.81
50710;BME280;37033;49.994;21.992;2022-08-01T13:28:21;99006.54;;;26.70;44.85
50710;BME280;37033;49.994;21.992;2022-08-01T13:31:12;99011.52;;;26.67;44.80
50710;BME280;37033;49.994;21.992;2022-08-01T13:34:03;99008.60;;;26.71;44.74
50710;BME280;37033;49.994;21.992;2022-08-01T13:36:53;99012.71;;;26.64;43.53
50710;BME280;37033;49.994;21.992;2022-08-01T13:39:46;99005.52;;;26.57;44.10
50710;BME280;37033;49.994;21.992;2022-08-01T13:42:37;99006.27;;;26.64;43.98
50710;BME280;37033;49.994;21.992;2022-08-01T13:45:27;99008.31;;;26.63;44.43
50710;BME280;37033;49.994;21.992;2022-08-01T13:48:18;99004.05;;;26.73;45.03
50710;BME280;37033;49.994;21.992;2022-08-01T13:51:08;99008.70;;;26.94;45.18
50710;BME280;37033;49.994;21.992;2022-08-01T13:53:59;99013.89;;;27.17;44.48
50710;BME280;37033;49.994;21.992;2022-08-01T13:56:49;99013.41;;;27.20;44.00
50710;BME280;37033;49.994;21.992;2022-08-01T13:59:39;99014.95;;;27.15;43.51
50710;BME280;37033;49.994;21.992;2022-08-01T14:02:30;99017.27;;;27.15;44.06
50710;BME280;37033;49.994;21.992;2022-08-01T14:05:20;99015.85;;;27.12;43.91
50710;BME280;37033;49.994;21.992;2022-08-01T14:08:11;99014.05;;;27.04;44.13
50710;BME280;37033;49.994;21.992;2022-08-01T14:11:01;99015.46;;;27.03;44.19
50710;BME280;37033;49.994;21.992;2022-08-01T14:13:52;99021.02;;;27.12;44.65
50710;BME280;37033;49.994;21.992;2022-08-01T14:16:43;99021.42;;;27.18;43.60
50710;BME280;37033;49.994;21.992;2022-08-01T14:19:34;99019.70;;;27.13;44.21
50710;BME280;37033;49.994;21.992;2022-08-01T14:22:24;99025.10;;;27.22;43.37
50710;BME280;37033;49.994;21.992;2022-08-01T14:25:15;99023.29;;;27.28;42.95
50710;BME280;37033;49.994;21.992;2022-08-01T14:28:06;99022.67;;;27.33;42.94
50710;BME280;37033;49.994;21.992;2022-08-01T14:30:57;99023.98;;;27.25;42.35
50710;BME280;37033;49.994;21.992;2022-08-01T14:33:47;99020.42;;;27.17;42.90
50710;BME280;37033;49.994;21.992;2022-08-01T14:36:38;99022.16;;;27.20;42.78
50710;BME280;37033;49.994;21.992;2022-08-01T14:39:28;99024.18;;;27.29;43.76
50710;BME280;37033;49.994;21.992;2022-08-01T14:42:18;99027.45;;;27.43;42.98
50710;BME280;37033;49.994;21.992;2022-08-01T14:45:10;99024.80;;;27.31;42.70
50710;BME280;37033;49.994;21.992;2022-08-01T14:48:01;99026.09;;;27.32;42.81
50710;BME280;37033;49.994;21.992;2022-08-01T14:50:51;99029.19;;;27.32;43.41
50710;BME280;37033;49.994;21.992;2022-08-01T14:53:42;99031.39;;;27.52;43.30
50710;BME280;37033;49.994;21.992;2022-08-01T14:56:33;99033.21;;;27.62;42.63
50710;BME280;37033;49.994;21.992;2022-08-01T14:59:23;99032.24;;;27.54;42.02
50710;BME280;37033;49.994;21.992;2022-08-01T15:02:13;99035.08;;;27.56;42.38
50710;BME280;37033;49.994;21.992;2022-08-01T15:05:06;99033.52;;;27.50;42.25